createdAt,value
2023-12-09T00:00:04.662Z,60.51
2023-12-09T00:02:33.790Z,61.69
2023-12-09T00:05:00.874Z,60.40
2023-12-09T00:07:28.131Z,61.32
2023-12-09T00:09:55.236Z,60.53
2023-12-09T00:12:22.436Z,60.12
2023-12-09T00:14:49.530Z,60.41
2023-12-09T00:17:16.646Z,60.44
2023-12-09T00:19:44.241Z,60.23
2023-12-09T00:22:11.370Z,59.69
2023-12-09T00:24:38.474Z,59.35
2023-12-09T00:27:05.654Z,59.59
2023-12-09T00:29:32.812Z,61.16
2023-12-09T00:31:59.890Z,60.45
2023-12-09T00:34:26.954Z,61.06
2023-12-09T00:36:54.048Z,61.38
2023-12-09T00:39:21.193Z,60.42
2023-12-09T00:41:50.442Z,60.96
2023-12-09T00:44:22.226Z,60.57
2023-12-09T00:46:49.633Z,61.42
2023-12-09T00:49:16.834Z,60.42
2023-12-09T00:51:44.015Z,60.25
2023-12-09T00:54:11.331Z,60.90
2023-12-09T00:56:38.548Z,59.54
2023-12-09T00:59:06.501Z,60.36
2023-12-09T01:01:35.178Z,61.26
2023-12-09T01:04:03.112Z,61.60
2023-12-09T01:06:30.960Z,61.19
2023-12-09T01:08:58.311Z,61.37
2023-12-09T01:11:26.129Z,61.69
2023-12-09T01:13:56.289Z,60.44
2023-12-09T01:16:23.359Z,60.84
2023-12-09T01:18:50.646Z,60.48
2023-12-09T01:21:17.746Z,59.73
2023-12-09T01:23:45.125Z,59.97
2023-12-09T01:26:12.263Z,59.29
2023-12-09T01:28:39.306Z,59.31
2023-12-09T01:31:06.936Z,59.41
2023-12-09T01:33:34.204Z,59.26
2023-12-09T01:36:01.429Z,59.00
2023-12-09T01:38:28.523Z,59.51
2023-12-09T01:40:56.069Z,58.89
2023-12-09T01:43:24.951Z,59.74
2023-12-09T01:45:56.375Z,59.56
2023-12-09T01:48:24.011Z,59.85
2023-12-09T01:50:51.738Z,58.11
2023-12-09T01:53:19.102Z,58.10
2023-12-09T01:55:47.954Z,58.96
2023-12-09T01:58:15.250Z,58.60
2023-12-09T02:00:43.608Z,58.04
2023-12-09T02:03:10.982Z,59.17
2023-12-09T02:05:38.216Z,58.57
2023-12-09T02:08:05.392Z,59.57
2023-12-09T02:10:32.573Z,59.43
2023-12-09T02:13:31.690Z,59.70
2023-12-09T02:16:11.319Z,59.66
2023-12-09T02:18:41.038Z,60.21
2023-12-09T02:21:10.144Z,60.82
2023-12-09T02:23:37.350Z,60.81
2023-12-09T02:26:17.983Z,60.14
2023-12-09T02:28:54.828Z,59.47
2023-12-09T02:31:29.603Z,60.28
2023-12-09T02:33:57.781Z,59.37
2023-12-09T02:36:27.895Z,58.79
2023-12-09T02:38:57.722Z,58.66
2023-12-09T02:41:26.176Z,58.05
2023-12-09T02:43:53.475Z,58.29
2023-12-09T02:46:20.905Z,58.16
2023-12-09T02:48:48.068Z,58.07
2023-12-09T02:51:15.344Z,57.49
2023-12-09T02:53:42.506Z,57.82
2023-12-09T02:56:09.932Z,57.00
2023-12-09T02:58:37.040Z,57.33
2023-12-09T03:01:04.326Z,57.70
2023-12-09T03:03:31.543Z,59.08
2023-12-09T03:05:59.019Z,58.64
2023-12-09T03:08:26.195Z,58.44
2023-12-09T03:10:53.283Z,57.79
2023-12-09T03:13:20.428Z,58.10
2023-12-09T03:15:47.611Z,58.00
2023-12-09T03:18:14.832Z,59.37
2023-12-09T03:20:42.240Z,59.00
2023-12-09T03:23:09.295Z,59.30
2023-12-09T03:25:36.341Z,58.90
2023-12-09T03:28:03.981Z,58.92
2023-12-09T03:30:31.210Z,59.04
2023-12-09T03:32:58.594Z,59.83
2023-12-09T03:35:25.815Z,59.10
2023-12-09T03:37:52.864Z,59.33
2023-12-09T03:40:20.049Z,59.92
2023-12-09T03:42:47.251Z,60.59
2023-12-09T03:45:14.572Z,59.70
2023-12-09T03:47:41.732Z,59.43
2023-12-09T03:50:09.309Z,58.05
2023-12-09T03:52:36.605Z,60.01
2023-12-09T03:55:05.241Z,60.10
2023-12-09T03:57:49.821Z,59.92
2023-12-09T04:00:17.146Z,60.96
2023-12-09T04:02:44.650Z,61.25
2023-12-09T04:05:11.782Z,61.40
2023-12-09T04:07:38.887Z,61.80
2023-12-09T04:10:06.616Z,61.92
2023-12-09T04:12:33.832Z,61.08
2023-12-09T04:15:01.144Z,61.34
2023-12-09T04:17:29.076Z,61.40
2023-12-09T04:19:56.392Z,61.61
2023-12-09T04:22:24.971Z,61.50
2023-12-09T04:24:52.374Z,61.45
2023-12-09T04:27:19.428Z,61.70
2023-12-09T04:29:46.550Z,61.05
2023-12-09T04:32:13.684Z,60.74
2023-12-09T04:34:40.814Z,59.86
2023-12-09T04:37:08.025Z,60.05
2023-12-09T04:39:35.276Z,59.31
2023-12-09T04:42:03.046Z,60.37
2023-12-09T04:44:30.207Z,60.83
2023-12-09T04:46:57.347Z,60.91
2023-12-09T04:49:24.736Z,60.12
2023-12-09T04:51:51.835Z,60.06
2023-12-09T04:54:19.357Z,60.91
2023-12-09T04:56:46.457Z,60.24
2023-12-09T04:59:13.532Z,60.01
2023-12-09T05:01:40.787Z,59.94
2023-12-09T05:04:08.046Z,59.96
2023-12-09T05:06:35.352Z,62.40
2023-12-09T05:09:02.605Z,60.80
2023-12-09T05:11:29.722Z,60.37
2023-12-09T05:13:56.922Z,59.99
2023-12-09T05:16:24.035Z,60.97
2023-12-09T05:18:51.460Z,60.21
2023-12-09T05:21:18.752Z,60.61
2023-12-09T05:23:47.653Z,60.45
2023-12-09T05:26:23.318Z,60.47
2023-12-09T05:28:54.818Z,60.63
2023-12-09T05:31:23.774Z,60.82
2023-12-09T05:33:53.148Z,60.21
2023-12-09T05:36:20.343Z,60.91
2023-12-09T05:38:50.610Z,60.47
2023-12-09T05:41:17.753Z,61.05
2023-12-09T05:43:44.899Z,60.57
2023-12-09T05:46:21.606Z,60.86
2023-12-09T05:49:18.577Z,61.08
2023-12-09T05:51:45.793Z,60.49
2023-12-09T05:54:13.233Z,60.38
2023-12-09T05:56:49.135Z,61.19
2023-12-09T05:59:16.370Z,60.87
2023-12-09T06:01:43.904Z,61.25
2023-12-09T06:04:12.515Z,60.45
2023-12-09T06:06:39.859Z,60.38
2023-12-09T06:09:07.977Z,60.94
2023-12-09T06:11:35.138Z,60.75
2023-12-09T06:14:02.253Z,60.72
2023-12-09T06:16:29.434Z,60.44
2023-12-09T06:18:56.585Z,61.96
2023-12-09T06:21:25.683Z,61.71
2023-12-09T06:23:55.474Z,61.13
2023-12-09T06:26:32.383Z,61.03
2023-12-09T06:28:59.789Z,60.65
2023-12-09T06:31:27.051Z,59.93
2023-12-09T06:33:54.403Z,59.40
2023-12-09T06:36:21.672Z,60.04
2023-12-09T06:38:55.657Z,60.28
2023-12-09T06:41:22.928Z,60.00
2023-12-09T06:43:50.008Z,60.34
2023-12-09T06:46:17.154Z,60.42
2023-12-09T06:48:44.420Z,58.36
2023-12-09T06:51:16.223Z,59.00
2023-12-09T06:53:44.494Z,59.02
2023-12-09T06:56:25.122Z,58.09
2023-12-09T06:58:52.640Z,57.42
2023-12-09T07:01:24.578Z,58.15
2023-12-09T07:03:52.205Z,57.79
2023-12-09T07:06:26.949Z,58.36
2023-12-09T07:08:55.338Z,59.40
2023-12-09T07:11:23.727Z,57.59
2023-12-09T07:13:51.237Z,58.04
2023-12-09T07:16:19.795Z,58.38
2023-12-09T07:18:48.819Z,58.05
2023-12-09T07:21:16.985Z,57.65
2023-12-09T07:23:47.239Z,58.80
2023-12-09T07:26:14.535Z,58.89
2023-12-09T07:28:41.825Z,58.60
2023-12-09T07:31:09.016Z,57.69
2023-12-09T07:33:36.276Z,56.72
2023-12-09T07:36:03.551Z,57.58
2023-12-09T07:38:30.686Z,57.08
2023-12-09T07:40:57.936Z,55.80
2023-12-09T07:43:25.662Z,56.78
2023-12-09T07:45:53.030Z,56.90
2023-12-09T07:48:20.309Z,56.24
2023-12-09T07:50:47.526Z,56.61
2023-12-09T07:53:14.711Z,57.03
2023-12-09T07:55:41.867Z,58.67
2023-12-09T07:58:08.955Z,58.60
2023-12-09T08:00:36.607Z,56.79
2023-12-09T08:03:06.050Z,56.66
2023-12-09T08:05:36.029Z,56.52
2023-12-09T08:08:04.206Z,55.95
2023-12-09T08:10:31.387Z,56.19
2023-12-09T08:12:58.608Z,57.45
2023-12-09T08:15:25.781Z,57.25
2023-12-09T08:17:53.097Z,57.45
2023-12-09T08:20:20.279Z,56.46
2023-12-09T08:22:47.353Z,58.44
2023-12-09T08:25:14.625Z,57.65
2023-12-09T08:27:42.055Z,58.13
2023-12-09T08:30:12.111Z,57.38
2023-12-09T08:32:43.676Z,57.63
2023-12-09T08:35:12.095Z,58.34
2023-12-09T08:38:40.114Z,58.48
2023-12-09T08:41:07.313Z,57.97
2023-12-09T08:43:34.610Z,57.52
2023-12-09T08:46:01.816Z,57.56
2023-12-09T08:48:29.036Z,57.66
2023-12-09T08:50:56.374Z,56.80
2023-12-09T08:53:23.601Z,56.70
2023-12-09T08:55:50.658Z,56.66
2023-12-09T08:58:17.848Z,57.30
2023-12-09T09:00:45.134Z,56.94
2023-12-09T09:03:12.498Z,56.03
2023-12-09T09:05:39.737Z,56.91
2023-12-09T09:08:07.344Z,55.94
2023-12-09T09:10:34.676Z,56.98
2023-12-09T09:13:01.887Z,57.22
2023-12-09T09:15:29.021Z,57.47
2023-12-09T09:17:56.338Z,57.25
2023-12-09T09:20:24.208Z,56.14
2023-12-09T09:22:51.446Z,55.21
2023-12-09T09:25:18.545Z,56.05
2023-12-09T09:27:46.107Z,55.22
2023-12-09T09:30:14.749Z,56.92
2023-12-09T09:32:42.449Z,56.75
2023-12-09T09:35:09.988Z,56.13
2023-12-09T09:37:37.383Z,56.33
2023-12-09T09:40:08.285Z,54.83
2023-12-09T09:42:44.247Z,54.50
2023-12-09T09:45:31.983Z,56.12
2023-12-09T09:48:06.951Z,54.70
2023-12-09T09:50:44.385Z,55.30
2023-12-09T09:53:14.291Z,54.14
2023-12-09T09:55:45.192Z,53.48
2023-12-09T09:58:14.649Z,53.74
2023-12-09T10:00:42.207Z,53.70
2023-12-09T10:03:12.312Z,53.80
2023-12-09T10:05:39.952Z,54.10
2023-12-09T10:08:07.066Z,53.38
2023-12-09T10:10:35.861Z,54.24
2023-12-09T10:13:03.003Z,54.03
2023-12-09T10:15:30.061Z,54.36
2023-12-09T10:18:05.421Z,53.43
2023-12-09T10:20:35.659Z,53.96
2023-12-09T10:23:02.812Z,54.08
2023-12-09T10:25:30.518Z,54.08
2023-12-09T10:27:58.813Z,54.47
2023-12-09T10:30:26.472Z,54.21
2023-12-09T10:32:54.209Z,54.45
2023-12-09T10:35:22.286Z,54.97
2023-12-09T10:37:51.036Z,55.11
2023-12-09T10:40:22.332Z,55.46
2023-12-09T10:42:58.734Z,54.45
2023-12-09T10:45:32.740Z,54.40
2023-12-09T10:48:00.082Z,54.12
2023-12-09T10:50:27.408Z,55.02
2023-12-09T10:52:54.613Z,54.70
2023-12-09T10:55:21.858Z,55.13
2023-12-09T10:57:51.526Z,53.87
2023-12-09T11:00:27.552Z,54.67
2023-12-09T11:02:57.273Z,54.54
2023-12-09T11:05:25.267Z,54.65
2023-12-09T11:07:53.171Z,55.67
2023-12-09T11:10:21.330Z,55.35
2023-12-09T11:12:49.509Z,55.02
2023-12-09T11:15:17.290Z,55.20
2023-12-09T11:17:46.192Z,55.03
2023-12-09T11:20:15.852Z,55.02
2023-12-09T11:22:45.011Z,54.81
2023-12-09T11:25:20.635Z,55.90
2023-12-09T11:27:51.557Z,56.43
2023-12-09T11:30:40.160Z,55.84
2023-12-09T11:33:08.257Z,55.67
2023-12-09T11:35:36.586Z,55.98
2023-12-09T11:38:39.371Z,55.98
2023-12-09T11:41:07.425Z,56.03
2023-12-09T11:43:34.635Z,55.71
2023-12-09T11:46:02.710Z,55.31
2023-12-09T11:48:30.782Z,55.56
2023-12-09T11:50:57.993Z,56.17
2023-12-09T11:53:25.143Z,55.10
2023-12-09T11:55:53.428Z,55.44
2023-12-09T11:58:20.838Z,56.01
2023-12-09T12:00:48.073Z,56.22
2023-12-09T12:03:15.358Z,55.59
2023-12-09T12:05:42.511Z,56.45
2023-12-09T12:08:10.222Z,56.38
2023-12-09T12:10:38.433Z,56.61
2023-12-09T12:13:06.228Z,56.07
2023-12-09T12:15:36.531Z,55.99
2023-12-09T12:18:04.086Z,55.86
2023-12-09T12:20:31.398Z,56.88
2023-12-09T12:22:58.636Z,56.00
2023-12-09T12:25:26.676Z,56.75
2023-12-09T12:27:57.200Z,55.86
2023-12-09T12:30:32.254Z,56.90
2023-12-09T12:32:59.877Z,58.46
2023-12-09T12:35:27.631Z,58.04
2023-12-09T12:37:57.706Z,58.30
2023-12-09T12:40:34.705Z,58.98
2023-12-09T12:43:04.783Z,57.73
2023-12-09T12:45:32.373Z,57.69
2023-12-09T12:48:00.320Z,57.92
2023-12-09T12:50:27.616Z,58.73
2023-12-09T12:52:55.146Z,59.86
2023-12-09T12:55:22.330Z,59.36
2023-12-09T12:57:49.794Z,59.56
2023-12-09T13:00:18.866Z,58.66
2023-12-09T13:02:46.322Z,58.36
2023-12-09T13:05:13.533Z,59.23
2023-12-09T13:07:40.659Z,59.07
2023-12-09T13:10:11.535Z,59.00
2023-12-09T13:12:41.971Z,58.31
2023-12-09T13:15:10.378Z,59.18
2023-12-09T13:17:37.832Z,59.43
2023-12-09T13:20:11.339Z,59.09
2023-12-09T13:22:38.773Z,59.02
2023-12-09T13:25:06.838Z,57.62
2023-12-09T13:27:34.573Z,58.07
2023-12-09T13:30:04.840Z,57.85
2023-12-09T13:32:32.478Z,58.99
2023-12-09T13:34:59.670Z,57.57
2023-12-09T13:37:27.059Z,58.12
2023-12-09T13:39:54.336Z,57.87
2023-12-09T13:42:24.114Z,58.21
2023-12-09T13:44:51.509Z,59.01
2023-12-09T13:47:20.117Z,58.77
2023-12-09T13:49:48.292Z,58.35
2023-12-09T13:52:23.363Z,58.56
2023-12-09T13:54:53.483Z,58.76
2023-12-09T13:57:20.792Z,59.74
2023-12-09T13:59:48.348Z,59.72
2023-12-09T14:02:15.889Z,60.32
2023-12-09T14:04:43.137Z,60.01
2023-12-09T14:07:10.509Z,59.64
2023-12-09T14:09:38.593Z,59.05
2023-12-09T14:12:06.140Z,59.48
2023-12-09T14:14:33.328Z,58.57
2023-12-09T14:17:00.996Z,59.49
2023-12-09T14:19:28.603Z,59.21
2023-12-09T14:21:56.029Z,59.28
2023-12-09T14:24:23.157Z,59.85
2023-12-09T14:26:53.492Z,58.88
2023-12-09T14:29:21.337Z,58.03
2023-12-09T14:31:48.599Z,58.70
2023-12-09T14:34:15.887Z,58.58
2023-12-09T14:36:44.214Z,57.96
2023-12-09T14:39:11.968Z,58.10
2023-12-09T14:41:41.525Z,57.11
2023-12-09T14:44:09.352Z,58.69
2023-12-09T14:46:45.259Z,57.80
2023-12-09T14:49:12.764Z,58.92
2023-12-09T14:51:43.830Z,58.03
2023-12-09T14:54:17.276Z,59.07
2023-12-09T14:56:47.284Z,59.28
2023-12-09T14:59:14.660Z,59.05
2023-12-09T15:01:44.142Z,58.59
2023-12-09T15:04:14.987Z,58.56
2023-12-09T15:06:42.182Z,58.48
2023-12-09T15:09:11.409Z,59.23
2023-12-09T15:11:38.659Z,59.82
2023-12-09T15:14:08.936Z,58.12
2023-12-09T15:16:39.018Z,58.49
2023-12-09T15:19:06.605Z,58.93
2023-12-09T15:21:34.716Z,58.99
2023-12-09T15:24:02.161Z,57.99
2023-12-09T15:26:29.411Z,57.70
2023-12-09T15:28:56.561Z,56.92
2023-12-09T15:31:24.180Z,57.30
2023-12-09T15:33:55.056Z,58.23
2023-12-09T15:36:22.494Z,58.07
2023-12-09T15:38:49.700Z,58.33
2023-12-09T15:41:17.072Z,57.88
2023-12-09T15:43:44.306Z,56.90
2023-12-09T15:46:11.731Z,58.50
2023-12-09T15:48:39.164Z,58.10
2023-12-09T15:51:08.610Z,58.53
2023-12-09T15:53:38.404Z,58.14
2023-12-09T15:56:07.261Z,57.12
2023-12-09T15:58:34.503Z,57.75
2023-12-09T16:01:03.074Z,57.60
2023-12-09T16:03:31.031Z,58.43
2023-12-09T16:05:58.263Z,58.00
2023-12-09T16:08:26.189Z,57.28
2023-12-09T16:10:53.590Z,57.76
2023-12-09T16:13:22.502Z,58.10
2023-12-09T16:15:50.078Z,57.46
2023-12-09T16:18:17.506Z,56.77
2023-12-09T16:20:45.159Z,57.46
2023-12-09T16:23:12.428Z,57.30
2023-12-09T16:25:42.291Z,56.89
2023-12-09T16:28:10.128Z,56.87
2023-12-09T16:30:37.661Z,56.98
2023-12-09T16:33:05.339Z,56.84
2023-12-09T16:35:32.773Z,56.73
2023-12-09T16:38:00.623Z,57.19
2023-12-09T16:40:28.499Z,56.33
2023-12-09T16:42:55.766Z,56.82
2023-12-09T16:45:23.036Z,56.63
2023-12-09T16:47:50.444Z,57.49
2023-12-09T16:50:18.321Z,57.45
2023-12-09T16:52:45.853Z,57.31
2023-12-09T16:55:13.198Z,57.16
2023-12-09T16:57:40.598Z,57.98
2023-12-09T17:00:08.659Z,57.19
2023-12-09T17:02:35.773Z,57.96
2023-12-09T17:05:03.276Z,57.87
2023-12-09T17:07:31.149Z,57.29
2023-12-09T17:09:58.536Z,57.05
2023-12-09T17:12:25.939Z,57.51
2023-12-09T17:14:53.415Z,58.21
2023-12-09T17:17:21.000Z,57.73
2023-12-09T17:19:48.151Z,58.26
2023-12-09T17:22:15.325Z,58.68
2023-12-09T17:24:42.668Z,58.39
2023-12-09T17:27:12.134Z,57.93
2023-12-09T17:29:39.365Z,59.07
2023-12-09T17:32:06.914Z,58.21
2023-12-09T17:34:36.018Z,57.67
2023-12-09T17:37:03.523Z,57.17
2023-12-09T17:39:30.697Z,57.22
2023-12-09T17:41:58.902Z,57.60
2023-12-09T17:44:26.156Z,57.56
2023-12-09T17:46:54.003Z,57.83
2023-12-09T17:49:23.171Z,57.69
2023-12-09T17:51:50.372Z,58.33
2023-12-09T17:54:17.598Z,57.10
2023-12-09T17:56:45.631Z,57.46
2023-12-09T17:59:12.753Z,57.09
2023-12-09T18:01:42.849Z,57.51
2023-12-09T18:04:10.178Z,57.40
2023-12-09T18:06:37.469Z,57.44
2023-12-09T18:09:08.581Z,58.96
2023-12-09T18:11:35.951Z,58.01
2023-12-09T18:14:03.640Z,58.13
2023-12-09T18:16:31.752Z,58.54
2023-12-09T18:18:59.142Z,57.67
2023-12-09T18:21:26.620Z,58.27
2023-12-09T18:23:54.550Z,57.85
2023-12-09T18:26:22.083Z,58.84
2023-12-09T18:28:49.420Z,59.02
2023-12-09T18:31:16.791Z,59.01
2023-12-09T18:33:43.982Z,58.56
2023-12-09T18:36:11.827Z,58.39
2023-12-09T18:38:42.561Z,58.40
2023-12-09T18:41:13.052Z,58.51
2023-12-09T18:43:41.647Z,58.43
2023-12-09T18:46:09.016Z,57.59
2023-12-09T18:48:36.317Z,57.59
2023-12-09T18:51:04.884Z,56.99
2023-12-09T18:53:32.380Z,57.07
2023-12-09T18:56:02.093Z,58.66
2023-12-09T18:58:29.759Z,58.56
2023-12-09T19:01:04.987Z,59.40
2023-12-09T19:03:38.138Z,58.30
2023-12-09T19:06:05.761Z,58.07
2023-12-09T19:08:33.297Z,58.07
2023-12-09T19:11:00.454Z,58.01
2023-12-09T19:13:27.633Z,57.94
2023-12-09T19:15:54.897Z,58.91
2023-12-09T19:18:22.158Z,59.21
2023-12-09T19:20:49.771Z,59.45
2023-12-09T19:23:16.902Z,59.58
2023-12-09T19:25:44.174Z,60.27
2023-12-09T19:28:11.595Z,59.84
2023-12-09T19:30:38.787Z,59.87
2023-12-09T19:33:06.537Z,60.21
2023-12-09T19:35:33.887Z,60.42
2023-12-09T19:38:01.022Z,60.15
2023-12-09T19:40:28.161Z,59.68
2023-12-09T19:42:57.689Z,60.26
2023-12-09T19:45:27.975Z,59.40
2023-12-09T19:48:00.144Z,59.17
2023-12-09T19:50:27.733Z,59.00
2023-12-09T19:52:55.070Z,59.39
2023-12-09T19:55:22.114Z,59.00
2023-12-09T19:57:49.554Z,59.02
2023-12-09T20:00:17.252Z,58.25
2023-12-09T20:02:47.739Z,58.27
2023-12-09T20:05:15.613Z,58.80
2023-12-09T20:07:42.847Z,59.72
2023-12-09T20:10:11.409Z,59.09
2023-12-09T20:12:41.398Z,58.49
2023-12-09T20:15:10.391Z,59.36
2023-12-09T20:17:37.886Z,58.94
2023-12-09T20:20:07.034Z,59.52
2023-12-09T20:22:34.448Z,58.34
2023-12-09T20:25:02.784Z,58.69
2023-12-09T20:27:33.198Z,59.56
2023-12-09T20:30:00.398Z,58.70
2023-12-09T20:32:28.069Z,59.16
2023-12-09T20:34:57.023Z,58.29
2023-12-09T20:37:24.291Z,58.89
2023-12-09T20:39:51.435Z,57.90
2023-12-09T20:42:18.545Z,57.87
2023-12-09T20:44:46.013Z,58.43
2023-12-09T20:47:13.674Z,58.09
2023-12-09T20:49:40.993Z,57.18
2023-12-09T20:52:08.802Z,58.18
2023-12-09T20:54:35.945Z,59.23
2023-12-09T20:57:03.148Z,58.90
2023-12-09T20:59:30.304Z,57.89
2023-12-09T21:01:58.359Z,58.30
2023-12-09T21:04:25.728Z,57.24
2023-12-09T21:06:53.002Z,57.68
2023-12-09T21:09:22.773Z,58.47
2023-12-09T21:11:49.906Z,58.01
2023-12-09T21:14:17.834Z,57.89
2023-12-09T21:16:44.940Z,58.25
2023-12-09T21:19:12.910Z,58.50
2023-12-09T21:21:40.873Z,58.38
2023-12-09T21:24:08.485Z,58.34
2023-12-09T21:26:39.206Z,58.00
2023-12-09T21:29:06.350Z,58.97
2023-12-09T21:31:33.538Z,58.63
2023-12-09T21:34:00.929Z,58.74
2023-12-09T21:36:28.120Z,58.98
2023-12-09T21:38:55.333Z,58.95
2023-12-09T21:41:23.396Z,59.12
2023-12-09T21:43:51.655Z,58.53
2023-12-09T21:46:24.179Z,58.70
2023-12-09T21:48:52.952Z,58.56
2023-12-09T21:51:20.710Z,58.35
2023-12-09T21:53:48.101Z,58.41
2023-12-09T21:56:22.884Z,58.37
2023-12-09T21:58:50.762Z,57.71
2023-12-09T22:01:19.274Z,58.94
2023-12-09T22:03:46.702Z,58.69
2023-12-09T22:06:14.363Z,58.76
2023-12-09T22:08:45.385Z,58.76
2023-12-09T22:11:13.513Z,57.75
2023-12-09T22:13:41.343Z,57.88
2023-12-09T22:16:09.006Z,58.29
2023-12-09T22:18:36.311Z,57.43
2023-12-09T22:21:03.730Z,57.32
2023-12-09T22:23:30.900Z,57.86
2023-12-09T22:25:58.005Z,58.39
2023-12-09T22:28:25.443Z,58.33
2023-12-09T22:30:52.519Z,59.07
2023-12-09T22:33:19.729Z,59.62
2023-12-09T22:35:47.496Z,60.01
2023-12-09T22:38:14.614Z,59.42
2023-12-09T22:40:41.872Z,59.66
2023-12-09T22:43:09.512Z,59.05
2023-12-09T22:45:37.096Z,58.36
2023-12-09T22:48:04.832Z,58.35
2023-12-09T22:50:32.139Z,58.90
2023-12-09T22:53:00.337Z,59.94
2023-12-09T22:55:28.080Z,60.23
2023-12-09T22:57:55.387Z,59.85
2023-12-09T23:00:42.853Z,59.84
2023-12-09T23:03:10.308Z,59.60
2023-12-09T23:05:38.307Z,60.48
2023-12-09T23:08:06.114Z,61.04
2023-12-09T23:10:33.336Z,60.40
2023-12-09T23:13:00.585Z,60.37
2023-12-09T23:15:27.832Z,60.41
2023-12-09T23:17:55.631Z,59.69
2023-12-09T23:20:22.844Z,60.32
2023-12-09T23:22:50.274Z,59.88
2023-12-09T23:25:17.367Z,60.42
2023-12-09T23:27:44.643Z,60.54
2023-12-09T23:30:12.202Z,60.50
2023-12-09T23:32:39.637Z,61.24
2023-12-09T23:35:06.879Z,60.57
2023-12-09T23:37:34.229Z,61.64
2023-12-09T23:40:01.340Z,61.03
2023-12-09T23:42:30.878Z,60.00
2023-12-09T23:44:58.109Z,60.16
2023-12-09T23:47:25.290Z,61.29
2023-12-09T23:49:52.490Z,60.00
2023-12-09T23:52:19.595Z,61.08
2023-12-09T23:54:47.557Z,60.81
2023-12-09T23:57:14.877Z,60.03
2023-12-09T23:59:42.140Z,60.02
